Weather History for Glenwood, MN

Change the Weather History Date:

Tuesday, April 9, 2013

  Actual Average Record
Temperature  
Mean Temperature 28 °F -  
Max Temperature 33 °F 50 °F 77 °F (2014)
Min Temperature 23 °F 28 °F 10 °F (1989)
Degree Days  
Heating Degree Days 37    
Moisture  
Dew Point 20 °F    
Average Humidity 70    
Maximum Humidity 87    
Minimum Humidity 55    
Precipitation  
Precipitation 0.00 in - - ()
Sea Level Pressure  
Sea Level Pressure 30.13 in    
Wind  
Wind Speed 16 mph (North)    
Max Wind Speed 22 mph    
Max Gust Speed 30 mph    
Visibility 10 miles    
Events      
Averages and records for this station are not official NWS values.
T = Trace of Precipitation, MM = Missing Value Source: NWS Daily Summary

Daily Weather History Graph

Daily Weather History Graph

Search for Another Location

Airport:

Trip Planner

Search our weather history database for the weather conditions in past years. The results will help you decide how hot, cold, wet, or windy it might be!

Date:

Astronomy

Apr. 09, 2013 Rise Set
Actual Time 6:45 AM CDT 8:00 PM CDT
Civil Twilight 6:15 AM CDT 8:30 PM CDT
Nautical Twilight 5:38 AM CDT 9:07 PM CDT
Astronomical Twilight 4:59 AM CDT 9:47 PM CDT
Moon 6:10 AM CDT (4/9) 7:37 PM CDT (4/9)
Length of Visible Light 14h 15m
Length of Day
13h 14m
Waning Crescent, 1% of the Moon is Illuminated
Apr 9
Waning Crescent
Apr 10
New
Apr 18
First Quarter
Apr 25
Full
May 2
Last Quarter

Hourly Weather History & Observations

Time (CDT) Temp. Windchill Dew Point Humidity Pressure Visibility Wind Dir Wind Speed Gust Speed Precip Events Conditions
12:13 AM 33.8 °F 25.8 °F 30.2 °F 87% 30.09 in 10.0 mi North 10.4 mph - N/A   Overcast
12:33 AM 33.8 °F 23.2 °F 30.2 °F 87% 30.09 in 10.0 mi North 17.3 mph 20.7 mph N/A   Overcast
12:54 AM 32.0 °F 21.2 °F 26.6 °F 80% 30.09 in 10.0 mi North 16.1 mph - N/A   Overcast
1:13 AM 30.2 °F 19.3 °F 26.6 °F 86% 30.05 in 10.0 mi North 15.0 mph 25.3 mph N/A   Overcast
1:33 AM 30.2 °F 17.8 °F 26.6 °F 86% 30.07 in 10.0 mi North 19.6 mph 27.6 mph N/A   Overcast
1:54 AM 30.2 °F 19.8 °F 24.8 °F 80% 30.10 in 10.0 mi North 13.8 mph 20.7 mph N/A   Overcast
2:13 AM 30.2 °F 18.9 °F 24.8 °F 80% 30.09 in 10.0 mi North 16.1 mph 20.7 mph N/A   Overcast
2:33 AM 30.2 °F 19.8 °F 24.8 °F 80% 30.10 in 10.0 mi North 13.8 mph - N/A   Overcast
2:53 AM 28.4 °F 17.5 °F 23.0 °F 80% 30.10 in 10.0 mi North 13.8 mph - N/A   Overcast
3:13 AM 28.4 °F 17.0 °F 21.2 °F 74% 30.10 in 10.0 mi North 15.0 mph - N/A   Overcast
3:33 AM 26.6 °F 13.8 °F 21.2 °F 80% 30.06 in 10.0 mi North 17.3 mph 23.0 mph N/A   Overcast
3:53 AM 26.6 °F 13.4 °F 21.2 °F 80% 30.05 in 10.0 mi North 18.4 mph 23.0 mph N/A   Mostly Cloudy
4:13 AM 26.6 °F 12.7 °F 19.4 °F 74% 30.07 in 10.0 mi North 20.7 mph 26.5 mph N/A   Scattered Clouds
4:33 AM 26.6 °F 15.7 °F 19.4 °F 74% 30.11 in 10.0 mi North 12.7 mph 20.7 mph N/A   Clear
4:53 AM 24.8 °F 12.9 °F 19.4 °F 80% 30.11 in 10.0 mi North 13.8 mph 18.4 mph N/A   Scattered Clouds
5:13 AM 24.8 °F 11.1 °F 19.4 °F 80% 30.10 in 10.0 mi North 18.4 mph - N/A   Clear
5:34 AM 24.8 °F 10.3 °F 17.6 °F 74% 30.12 in 10.0 mi North 20.7 mph 25.3 mph N/A   Clear
5:53 AM 24.8 °F 11.5 °F 17.6 °F 74% 30.12 in 10.0 mi North 17.3 mph 28.8 mph N/A   Clear
6:13 AM 24.8 °F 11.1 °F 17.6 °F 74% 30.12 in 10.0 mi North 18.4 mph - N/A   Clear
6:34 AM 24.8 °F 10.3 °F 17.6 °F 74% 30.12 in 10.0 mi North 20.7 mph 25.3 mph N/A   Scattered Clouds
6:53 AM 24.8 °F 10.3 °F 17.6 °F 74% 30.11 in 10.0 mi North 20.7 mph 25.3 mph N/A   Mostly Cloudy
7:13 AM 24.8 °F 11.5 °F 17.6 °F 74% 30.12 in 10.0 mi North 17.3 mph 20.7 mph N/A   Mostly Cloudy
7:34 AM 23.0 °F 8.0 °F 17.6 °F 80% 30.11 in 10.0 mi North 20.7 mph 25.3 mph N/A   Overcast
7:53 AM 23.0 °F 10.1 °F 17.6 °F 80% 30.12 in 10.0 mi North 15.0 mph 24.2 mph N/A   Scattered Clouds
8:13 AM 23.0 °F 8.7 °F 15.8 °F 74% 30.13 in 10.0 mi North 18.4 mph 25.3 mph N/A   Clear
8:34 AM 24.8 °F 12.4 °F 17.6 °F 74% 30.15 in 10.0 mi North 15.0 mph - N/A   Scattered Clouds
8:53 AM 23.0 °F 9.6 °F 15.8 °F 74% 30.14 in 10.0 mi North 16.1 mph 23.0 mph N/A   Scattered Clouds
9:13 AM 24.8 °F 11.1 °F 15.8 °F 69% 30.13 in 10.0 mi North 18.4 mph 23.0 mph N/A   Clear
9:34 AM 23.0 °F 8.7 °F 15.8 °F 74% 30.13 in 10.0 mi North 18.4 mph 21.9 mph N/A   Mostly Cloudy
9:53 AM 24.8 °F 12.4 °F 17.6 °F 74% 30.14 in 10.0 mi North 15.0 mph 23.0 mph N/A   Mostly Cloudy
10:13 AM 24.8 °F 11.5 °F 15.8 °F 69% 30.14 in 10.0 mi North 17.3 mph 23.0 mph N/A   Scattered Clouds
10:34 AM 24.8 °F 11.1 °F 15.8 °F 69% 30.15 in 10.0 mi North 18.4 mph 21.9 mph N/A   Clear
10:53 AM 24.8 °F 11.5 °F 17.6 °F 74% 30.16 in 10.0 mi North 17.3 mph 21.9 mph N/A   Clear
11:13 AM 26.6 °F 15.2 °F 17.6 °F 69% 30.18 in 10.0 mi North 13.8 mph 19.6 mph N/A   Scattered Clouds
11:34 AM 26.6 °F 14.3 °F 17.6 °F 69% 30.18 in 10.0 mi North 16.1 mph 20.7 mph N/A   Clear
11:53 AM 26.6 °F 13.8 °F 17.6 °F 69% 30.17 in 10.0 mi North 17.3 mph 21.9 mph N/A   Clear
12:13 PM 26.6 °F 12.7 °F 17.6 °F 69% 30.15 in 10.0 mi North 20.7 mph 26.5 mph N/A   Clear
12:33 PM 26.6 °F 13.4 °F 17.6 °F 69% 30.14 in 10.0 mi North 18.4 mph 26.5 mph N/A   Clear
12:53 PM 26.6 °F 14.3 °F 19.4 °F 74% 30.16 in 10.0 mi North 16.1 mph 24.2 mph N/A   Scattered Clouds
1:13 PM 28.4 °F 15.8 °F 19.4 °F 69% 30.16 in 10.0 mi North 18.4 mph 29.9 mph N/A   Scattered Clouds
1:33 PM 28.4 °F 15.4 °F 19.4 °F 69% 30.16 in 10.0 mi North 19.6 mph 25.3 mph N/A   Scattered Clouds
1:53 PM 28.4 °F 16.2 °F 19.4 °F 69% 30.14 in 10.0 mi NNE 17.3 mph 25.3 mph N/A   Scattered Clouds
2:13 PM 30.2 °F 17.4 °F 21.2 °F 69% 30.13 in 10.0 mi North 20.7 mph 25.3 mph N/A   Scattered Clouds
2:33 PM 30.2 °F 17.1 °F 21.2 °F 69% 30.11 in 10.0 mi North 21.9 mph 27.6 mph N/A   Scattered Clouds
2:53 PM 30.2 °F 18.5 °F 21.2 °F 69% 30.11 in 10.0 mi NNE 17.3 mph 28.8 mph N/A   Clear
3:13 PM 32.0 °F 20.5 °F 21.2 °F 64% 30.11 in 10.0 mi North 18.4 mph - N/A   Clear
3:33 PM 32.0 °F 20.1 °F 19.4 °F 60% 30.12 in 10.0 mi North 19.6 mph 25.3 mph N/A   Scattered Clouds
3:53 PM 32.0 °F 20.8 °F 19.4 °F 60% 30.12 in 10.0 mi North 17.3 mph 25.3 mph N/A   Scattered Clouds
4:13 PM 32.0 °F 19.8 °F 17.6 °F 55% 30.13 in 10.0 mi NNE 20.7 mph 26.5 mph N/A   Mostly Cloudy
4:33 PM 32.0 °F 20.5 °F 17.6 °F 55% 30.16 in 10.0 mi North 18.4 mph 25.3 mph N/A   Overcast
4:53 PM 32.0 °F 21.6 °F 17.6 °F 55% 30.16 in 10.0 mi North 15.0 mph 19.6 mph N/A   Overcast
5:14 PM 32.0 °F 23.0 °F 17.6 °F 55% 30.18 in 10.0 mi North 11.5 mph - N/A   Overcast
5:33 PM 32.0 °F 22.1 °F 19.4 °F 60% 30.17 in 10.0 mi North 13.8 mph - N/A   Overcast
5:53 PM 32.0 °F 21.2 °F 19.4 °F 60% 30.16 in 10.0 mi NNE 16.1 mph 21.9 mph N/A   Overcast
6:14 PM 32.0 °F 19.8 °F 17.6 °F 55% 30.13 in 10.0 mi NNE 20.7 mph 25.3 mph N/A   Scattered Clouds
6:33 PM 32.0 °F 20.5 °F 19.4 °F 60% 30.12 in 10.0 mi NNE 18.4 mph 26.5 mph N/A   Scattered Clouds
6:53 PM 32.0 °F 20.8 °F 19.4 °F 60% 30.13 in 10.0 mi NNE 17.3 mph 27.6 mph N/A   Mostly Cloudy
7:13 PM 32.0 °F 20.8 °F 19.4 °F 60% 30.12 in 10.0 mi NNE 17.3 mph - N/A   Overcast
7:33 PM 32.0 °F 21.6 °F 19.4 °F 60% 30.12 in 10.0 mi NNE 15.0 mph 21.9 mph N/A   Overcast
7:53 PM 32.0 °F 21.2 °F 19.4 °F 60% 30.12 in 10.0 mi NNE 16.1 mph - N/A   Overcast
8:14 PM 32.0 °F 21.2 °F 21.2 °F 64% 30.12 in 10.0 mi NNE 16.1 mph - N/A   Overcast
8:33 PM 32.0 °F 21.2 °F 21.2 °F 64% 30.12 in 10.0 mi NNE 16.1 mph - N/A   Overcast
8:53 PM 32.0 °F 22.1 °F 21.2 °F 64% 30.13 in 10.0 mi NNE 13.8 mph - N/A   Overcast
9:13 PM 32.0 °F 21.6 °F 21.2 °F 64% 30.13 in 10.0 mi NNE 15.0 mph - N/A   Overcast
9:34 PM 33.8 °F 23.5 °F 21.2 °F 60% 30.13 in 10.0 mi North 16.1 mph - N/A   Overcast
9:53 PM 33.8 °F 24.8 °F 21.2 °F 60% 30.14 in 10.0 mi North 12.7 mph - N/A   Overcast
10:13 PM 33.8 °F 26.4 °F 23.0 °F 65% 30.17 in 10.0 mi North 9.2 mph - N/A   Overcast
10:34 PM 33.8 °F 25.3 °F 23.0 °F 65% 30.18 in 10.0 mi North 11.5 mph - N/A   Overcast
10:53 PM 33.8 °F 25.8 °F 23.0 °F 65% 30.19 in 10.0 mi North 10.4 mph 16.1 mph N/A   Overcast
11:13 PM 32.0 °F 24.2 °F 23.0 °F 69% 30.18 in 10.0 mi NNE 9.2 mph - N/A   Overcast
11:34 PM 32.0 °F 23.0 °F 23.0 °F 69% 30.18 in 10.0 mi NNE 11.5 mph 16.1 mph N/A   Scattered Clouds
11:53 PM 32.0 °F 24.2 °F 23.0 °F 69% 30.20 in 10.0 mi NNE 9.2 mph - N/A   Mostly Cloudy